sensor_id;sensor_type;location;lat;lon;timestamp;P1;durP1;ratioP1;P2;durP2;ratioP2
25525;SDS011;13424;48.424;11.258;2023-12-04T00:00:18;58.80;;;23.23;;
25525;SDS011;13424;48.424;11.258;2023-12-04T00:02:44;45.30;;;22.60;;
25525;SDS011;13424;48.424;11.258;2023-12-04T00:05:10;42.17;;;21.67;;
25525;SDS011;13424;48.424;11.258;2023-12-04T00:07:36;49.70;;;21.80;;
25525;SDS011;13424;48.424;11.258;2023-12-04T00:10:02;50.50;;;22.70;;
25525;SDS011;13424;48.424;11.258;2023-12-04T00:16:19;39.45;;;20.52;;
25525;SDS011;13424;48.424;11.258;2023-12-04T00:18:45;45.27;;;22.57;;
25525;SDS011;13424;48.424;11.258;2023-12-04T00:21:12;44.43;;;21.70;;
25525;SDS011;13424;48.424;11.258;2023-12-04T00:23:38;45.43;;;20.07;;
25525;SDS011;13424;48.424;11.258;2023-12-04T00:26:05;35.43;;;19.63;;
25525;SDS011;13424;48.424;11.258;2023-12-04T00:28:31;46.57;;;19.77;;
25525;SDS011;13424;48.424;11.258;2023-12-04T00:30:57;48.03;;;19.83;;
25525;SDS011;13424;48.424;11.258;2023-12-04T00:33:23;39.20;;;20.00;;
25525;SDS011;13424;48.424;11.258;2023-12-04T00:39:09;36.03;;;18.23;;
25525;SDS011;13424;48.424;11.258;2023-12-04T00:41:35;37.63;;;19.37;;
25525;SDS011;13424;48.424;11.258;2023-12-04T00:44:01;43.03;;;21.37;;
25525;SDS011;13424;48.424;11.258;2023-12-04T00:46:27;38.87;;;19.63;;
25525;SDS011;13424;48.424;11.258;2023-12-04T00:48:53;34.37;;;18.53;;
25525;SDS011;13424;48.424;11.258;2023-12-04T00:51:19;37.13;;;17.27;;
25525;SDS011;13424;48.424;11.258;2023-12-04T00:53:45;36.40;;;18.27;;
25525;SDS011;13424;48.424;11.258;2023-12-04T00:56:11;37.43;;;17.77;;
25525;SDS011;13424;48.424;11.258;2023-12-04T01:02:30;37.90;;;17.40;;
25525;SDS011;13424;48.424;11.258;2023-12-04T01:04:56;35.43;;;17.23;;
25525;SDS011;13424;48.424;11.258;2023-12-04T01:07:22;39.83;;;18.33;;
25525;SDS011;13424;48.424;11.258;2023-12-04T01:09:49;39.57;;;17.87;;
25525;SDS011;13424;48.424;11.258;2023-12-04T01:12:37;34.23;;;19.13;;
25525;SDS011;13424;48.424;11.258;2023-12-04T01:15:03;41.10;;;18.07;;
25525;SDS011;13424;48.424;11.258;2023-12-04T01:17:30;37.30;;;18.03;;
25525;SDS011;13424;48.424;11.258;2023-12-04T01:19:56;36.80;;;17.50;;
25525;SDS011;13424;48.424;11.258;2023-12-04T01:22:23;41.47;;;19.07;;
25525;SDS011;13424;48.424;11.258;2023-12-04T01:24:49;43.40;;;19.30;;
25525;SDS011;13424;48.424;11.258;2023-12-04T01:27:15;36.90;;;19.13;;
25525;SDS011;13424;48.424;11.258;2023-12-04T01:29:41;38.53;;;18.70;;
25525;SDS011;13424;48.424;11.258;2023-12-04T01:32:07;41.17;;;18.70;;
25525;SDS011;13424;48.424;11.258;2023-12-04T01:38:04;36.77;;;17.90;;
25525;SDS011;13424;48.424;11.258;2023-12-04T01:40:30;41.57;;;19.60;;
25525;SDS011;13424;48.424;11.258;2023-12-04T01:42:56;45.03;;;20.87;;
25525;SDS011;13424;48.424;11.258;2023-12-04T01:45:23;43.27;;;20.20;;
25525;SDS011;13424;48.424;11.258;2023-12-04T01:47:48;39.27;;;20.10;;
25525;SDS011;13424;48.424;11.258;2023-12-04T01:50:15;40.70;;;20.63;;
25525;SDS011;13424;48.424;11.258;2023-12-04T01:52:41;45.30;;;19.93;;
25525;SDS011;13424;48.424;11.258;2023-12-04T01:55:08;37.87;;;19.07;;
25525;SDS011;13424;48.424;11.258;2023-12-04T01:57:45;41.33;;;21.37;;
25525;SDS011;13424;48.424;11.258;2023-12-04T02:00:12;45.10;;;21.13;;
25525;SDS011;13424;48.424;11.258;2023-12-04T02:02:40;45.53;;;20.57;;
25525;SDS011;13424;48.424;11.258;2023-12-04T02:05:09;37.40;;;18.07;;
25525;SDS011;13424;48.424;11.258;2023-12-04T02:07:38;49.90;;;22.77;;
25525;SDS011;13424;48.424;11.258;2023-12-04T02:10:07;51.53;;;22.77;;
25525;SDS011;13424;48.424;11.258;2023-12-04T02:12:34;52.10;;;20.97;;
25525;SDS011;13424;48.424;11.258;2023-12-04T02:15:00;44.90;;;20.00;;
25525;SDS011;13424;48.424;11.258;2023-12-04T02:17:26;43.20;;;20.17;;
25525;SDS011;13424;48.424;11.258;2023-12-04T02:19:54;48.70;;;22.00;;
25525;SDS011;13424;48.424;11.258;2023-12-04T02:22:20;45.93;;;21.13;;
25525;SDS011;13424;48.424;11.258;2023-12-04T02:24:46;40.13;;;19.53;;
25525;SDS011;13424;48.424;11.258;2023-12-04T02:27:47;51.97;;;23.40;;
25525;SDS011;13424;48.424;11.258;2023-12-04T02:30:18;47.73;;;20.03;;
25525;SDS011;13424;48.424;11.258;2023-12-04T02:32:48;47.27;;;19.63;;
25525;SDS011;13424;48.424;11.258;2023-12-04T02:35:22;42.33;;;20.80;;
25525;SDS011;13424;48.424;11.258;2023-12-04T02:37:51;43.30;;;20.33;;
25525;SDS011;13424;48.424;11.258;2023-12-04T02:40:19;44.80;;;20.97;;
25525;SDS011;13424;48.424;11.258;2023-12-04T02:42:45;47.17;;;21.90;;
25525;SDS011;13424;48.424;11.258;2023-12-04T02:45:11;42.30;;;20.70;;
25525;SDS011;13424;48.424;11.258;2023-12-04T02:47:37;36.80;;;18.23;;
25525;SDS011;13424;48.424;11.258;2023-12-04T02:50:04;43.67;;;20.03;;
25525;SDS011;13424;48.424;11.258;2023-12-04T02:56:18;50.40;;;20.57;;
25525;SDS011;13424;48.424;11.258;2023-12-04T02:58:44;45.30;;;18.73;;
25525;SDS011;13424;48.424;11.258;2023-12-04T03:01:10;47.70;;;19.87;;
25525;SDS011;13424;48.424;11.258;2023-12-04T03:03:36;49.10;;;21.33;;
25525;SDS011;13424;48.424;11.258;2023-12-04T03:06:02;38.90;;;18.33;;
25525;SDS011;13424;48.424;11.258;2023-12-04T03:08:29;44.33;;;19.80;;
25525;SDS011;13424;48.424;11.258;2023-12-04T03:10:55;41.80;;;20.93;;
25525;SDS011;13424;48.424;11.258;2023-12-04T03:13:21;45.70;;;20.73;;
25525;SDS011;13424;48.424;11.258;2023-12-04T03:15:47;46.07;;;19.60;;
25525;SDS011;13424;48.424;11.258;2023-12-04T03:18:13;43.60;;;21.37;;
25525;SDS011;13424;48.424;11.258;2023-12-04T03:24:41;37.23;;;18.93;;
25525;SDS011;13424;48.424;11.258;2023-12-04T03:27:07;47.00;;;20.87;;
25525;SDS011;13424;48.424;11.258;2023-12-04T03:29:33;47.00;;;21.37;;
25525;SDS011;13424;48.424;11.258;2023-12-04T03:31:59;39.97;;;19.97;;
25525;SDS011;13424;48.424;11.258;2023-12-04T03:34:25;53.03;;;21.03;;
25525;SDS011;13424;48.424;11.258;2023-12-04T03:36:51;42.03;;;18.60;;
25525;SDS011;13424;48.424;11.258;2023-12-04T03:39:17;41.47;;;19.33;;
25525;SDS011;13424;48.424;11.258;2023-12-04T03:41:43;45.07;;;20.40;;
25525;SDS011;13424;48.424;11.258;2023-12-04T03:44:10;45.30;;;20.47;;
25525;SDS011;13424;48.424;11.258;2023-12-04T03:46:36;48.53;;;21.40;;
25525;SDS011;13424;48.424;11.258;2023-12-04T03:49:02;49.87;;;21.77;;
25525;SDS011;13424;48.424;11.258;2023-12-04T03:51:29;49.23;;;23.30;;
25525;SDS011;13424;48.424;11.258;2023-12-04T03:54:01;55.93;;;23.73;;
25525;SDS011;13424;48.424;11.258;2023-12-04T03:56:27;50.67;;;23.60;;
25525;SDS011;13424;48.424;11.258;2023-12-04T03:58:53;54.23;;;23.63;;
25525;SDS011;13424;48.424;11.258;2023-12-04T04:01:19;50.97;;;24.03;;
25525;SDS011;13424;48.424;11.258;2023-12-04T04:03:45;48.67;;;24.80;;
25525;SDS011;13424;48.424;11.258;2023-12-04T04:06:11;57.40;;;23.80;;
25525;SDS011;13424;48.424;11.258;2023-12-04T04:08:37;52.17;;;22.57;;
25525;SDS011;13424;48.424;11.258;2023-12-04T04:11:03;44.17;;;21.77;;
25525;SDS011;13424;48.424;11.258;2023-12-04T04:13:29;45.67;;;21.83;;
25525;SDS011;13424;48.424;11.258;2023-12-04T04:15:55;42.60;;;19.63;;
25525;SDS011;13424;48.424;11.258;2023-12-04T04:18:21;49.47;;;21.00;;
25525;SDS011;13424;48.424;11.258;2023-12-04T04:20:47;47.17;;;22.30;;
25525;SDS011;13424;48.424;11.258;2023-12-04T04:23:13;43.83;;;19.57;;
25525;SDS011;13424;48.424;11.258;2023-12-04T04:25:39;45.90;;;21.73;;
25525;SDS011;13424;48.424;11.258;2023-12-04T04:28:05;49.77;;;20.20;;
25525;SDS011;13424;48.424;11.258;2023-12-04T04:30:31;45.80;;;21.90;;
25525;SDS011;13424;48.424;11.258;2023-12-04T04:32:57;49.37;;;21.77;;
25525;SDS011;13424;48.424;11.258;2023-12-04T04:35:23;51.77;;;21.47;;
25525;SDS011;13424;48.424;11.258;2023-12-04T04:37:50;45.57;;;20.80;;
25525;SDS011;13424;48.424;11.258;2023-12-04T04:40:16;51.00;;;23.33;;
25525;SDS011;13424;48.424;11.258;2023-12-04T04:42:43;57.50;;;23.60;;
25525;SDS011;13424;48.424;11.258;2023-12-04T04:45:09;77.47;;;29.50;;
25525;SDS011;13424;48.424;11.258;2023-12-04T04:47:35;79.77;;;32.37;;
25525;SDS011;13424;48.424;11.258;2023-12-04T04:50:01;71.83;;;28.60;;
25525;SDS011;13424;48.424;11.258;2023-12-04T04:52:28;50.87;;;23.83;;
25525;SDS011;13424;48.424;11.258;2023-12-04T04:54:54;48.07;;;20.43;;
25525;SDS011;13424;48.424;11.258;2023-12-04T04:57:20;46.10;;;21.53;;
25525;SDS011;13424;48.424;11.258;2023-12-04T04:59:46;47.13;;;21.30;;
25525;SDS011;13424;48.424;11.258;2023-12-04T05:02:12;46.83;;;22.53;;
25525;SDS011;13424;48.424;11.258;2023-12-04T05:04:38;49.87;;;21.57;;
25525;SDS011;13424;48.424;11.258;2023-12-04T05:07:04;42.23;;;20.07;;
25525;SDS011;13424;48.424;11.258;2023-12-04T05:09:30;47.50;;;20.80;;
25525;SDS011;13424;48.424;11.258;2023-12-04T05:11:56;40.07;;;18.73;;
25525;SDS011;13424;48.424;11.258;2023-12-04T05:18:48;45.23;;;20.63;;
25525;SDS011;13424;48.424;11.258;2023-12-04T05:21:14;44.37;;;20.20;;
25525;SDS011;13424;48.424;11.258;2023-12-04T05:23:40;38.10;;;17.90;;
25525;SDS011;13424;48.424;11.258;2023-12-04T05:26:06;36.23;;;18.93;;
25525;SDS011;13424;48.424;11.258;2023-12-04T05:28:33;33.13;;;17.70;;
25525;SDS011;13424;48.424;11.258;2023-12-04T05:31:00;35.90;;;18.20;;
25525;SDS011;13424;48.424;11.258;2023-12-04T05:33:26;35.80;;;17.97;;
25525;SDS011;13424;48.424;11.258;2023-12-04T05:35:52;42.90;;;18.17;;
25525;SDS011;13424;48.424;11.258;2023-12-04T05:38:18;37.87;;;19.73;;
25525;SDS011;13424;48.424;11.258;2023-12-04T05:40:45;41.40;;;19.70;;
25525;SDS011;13424;48.424;11.258;2023-12-04T05:43:12;61.47;;;24.40;;
25525;SDS011;13424;48.424;11.258;2023-12-04T05:45:39;45.23;;;23.00;;
25525;SDS011;13424;48.424;11.258;2023-12-04T05:48:05;41.60;;;19.53;;
25525;SDS011;13424;48.424;11.258;2023-12-04T05:50:31;36.53;;;17.70;;
25525;SDS011;13424;48.424;11.258;2023-12-04T05:52:57;35.77;;;16.83;;
25525;SDS011;13424;48.424;11.258;2023-12-04T05:55:30;39.57;;;19.17;;
25525;SDS011;13424;48.424;11.258;2023-12-04T05:57:56;43.07;;;19.67;;
25525;SDS011;13424;48.424;11.258;2023-12-04T06:00:22;34.17;;;18.47;;
25525;SDS011;13424;48.424;11.258;2023-12-04T06:02:48;35.13;;;17.63;;
25525;SDS011;13424;48.424;11.258;2023-12-04T06:05:14;34.67;;;18.87;;
25525;SDS011;13424;48.424;11.258;2023-12-04T06:07:40;37.30;;;19.03;;
25525;SDS011;13424;48.424;11.258;2023-12-04T06:10:07;39.57;;;18.83;;
25525;SDS011;13424;48.424;11.258;2023-12-04T06:12:34;39.40;;;19.73;;
25525;SDS011;13424;48.424;11.258;2023-12-04T06:15:00;43.47;;;20.03;;
25525;SDS011;13424;48.424;11.258;2023-12-04T06:21:51;53.63;;;23.97;;
25525;SDS011;13424;48.424;11.258;2023-12-04T06:24:18;38.70;;;22.07;;
25525;SDS011;13424;48.424;11.258;2023-12-04T06:26:44;55.83;;;23.57;;
25525;SDS011;13424;48.424;11.258;2023-12-04T06:29:15;54.78;;;21.52;;
25525;SDS011;13424;48.424;11.258;2023-12-04T06:32:00;45.43;;;22.43;;
25525;SDS011;13424;48.424;11.258;2023-12-04T06:34:26;40.33;;;20.50;;
25525;SDS011;13424;48.424;11.258;2023-12-04T06:36:53;44.57;;;19.53;;
25525;SDS011;13424;48.424;11.258;2023-12-04T06:39:21;50.40;;;20.97;;
25525;SDS011;13424;48.424;11.258;2023-12-04T06:45:36;60.43;;;24.27;;
25525;SDS011;13424;48.424;11.258;2023-12-04T06:48:03;63.97;;;24.40;;
25525;SDS011;13424;48.424;11.258;2023-12-04T06:50:29;44.00;;;20.17;;
25525;SDS011;13424;48.424;11.258;2023-12-04T06:52:55;41.33;;;19.73;;
25525;SDS011;13424;48.424;11.258;2023-12-04T06:55:22;46.07;;;19.70;;
25525;SDS011;13424;48.424;11.258;2023-12-04T06:57:49;39.83;;;20.03;;
25525;SDS011;13424;48.424;11.258;2023-12-04T07:00:15;40.13;;;18.90;;
25525;SDS011;13424;48.424;11.258;2023-12-04T07:02:41;43.97;;;19.47;;
25525;SDS011;13424;48.424;11.258;2023-12-04T07:05:08;37.63;;;17.17;;
25525;SDS011;13424;48.424;11.258;2023-12-04T07:07:34;39.63;;;18.87;;
25525;SDS011;13424;48.424;11.258;2023-12-04T07:10:00;39.60;;;19.23;;
25525;SDS011;13424;48.424;11.258;2023-12-04T07:12:26;42.80;;;21.70;;
25525;SDS011;13424;48.424;11.258;2023-12-04T07:14:52;49.27;;;21.97;;
25525;SDS011;13424;48.424;11.258;2023-12-04T07:17:18;46.53;;;21.90;;
25525;SDS011;13424;48.424;11.258;2023-12-04T07:19:45;41.17;;;21.77;;
25525;SDS011;13424;48.424;11.258;2023-12-04T07:22:11;51.27;;;22.13;;
25525;SDS011;13424;48.424;11.258;2023-12-04T07:24:37;40.83;;;19.87;;
25525;SDS011;13424;48.424;11.258;2023-12-04T07:27:04;35.43;;;18.20;;
25525;SDS011;13424;48.424;11.258;2023-12-04T07:29:30;44.00;;;19.87;;
25525;SDS011;13424;48.424;11.258;2023-12-04T07:31:56;46.70;;;21.43;;
25525;SDS011;13424;48.424;11.258;2023-12-04T07:34:22;39.73;;;18.47;;
25525;SDS011;13424;48.424;11.258;2023-12-04T07:36:48;42.63;;;20.37;;
25525;SDS011;13424;48.424;11.258;2023-12-04T07:39:14;44.50;;;21.03;;
25525;SDS011;13424;48.424;11.258;2023-12-04T07:41:40;38.50;;;18.73;;
25525;SDS011;13424;48.424;11.258;2023-12-04T07:44:07;41.83;;;20.47;;
25525;SDS011;13424;48.424;11.258;2023-12-04T07:46:33;41.97;;;19.73;;
25525;SDS011;13424;48.424;11.258;2023-12-04T07:48:59;42.33;;;20.47;;
25525;SDS011;13424;48.424;11.258;2023-12-04T07:51:25;44.50;;;19.30;;
25525;SDS011;13424;48.424;11.258;2023-12-04T07:53:51;40.47;;;20.53;;
25525;SDS011;13424;48.424;11.258;2023-12-04T07:56:17;43.73;;;20.03;;
25525;SDS011;13424;48.424;11.258;2023-12-04T08:02:24;40.73;;;18.93;;
25525;SDS011;13424;48.424;11.258;2023-12-04T08:04:50;44.23;;;20.70;;
25525;SDS011;13424;48.424;11.258;2023-12-04T08:07:16;36.53;;;19.37;;
25525;SDS011;13424;48.424;11.258;2023-12-04T08:09:42;39.13;;;18.93;;
25525;SDS011;13424;48.424;11.258;2023-12-04T08:12:08;42.37;;;20.60;;
25525;SDS011;13424;48.424;11.258;2023-12-04T08:14:34;39.87;;;19.23;;
25525;SDS011;13424;48.424;11.258;2023-12-04T08:17:00;50.20;;;25.03;;
25525;SDS011;13424;48.424;11.258;2023-12-04T08:19:26;52.77;;;26.47;;
25525;SDS011;13424;48.424;11.258;2023-12-04T08:21:52;58.80;;;28.70;;
25525;SDS011;13424;48.424;11.258;2023-12-04T08:24:18;40.23;;;20.07;;
25525;SDS011;13424;48.424;11.258;2023-12-04T08:26:45;53.70;;;23.63;;
25525;SDS011;13424;48.424;11.258;2023-12-04T08:29:11;45.57;;;20.97;;
25525;SDS011;13424;48.424;11.258;2023-12-04T08:31:37;43.67;;;20.33;;
25525;SDS011;13424;48.424;11.258;2023-12-04T08:34:36;34.90;;;20.53;;
25525;SDS011;13424;48.424;11.258;2023-12-04T08:37:02;46.30;;;22.43;;
25525;SDS011;13424;48.424;11.258;2023-12-04T08:39:28;38.90;;;21.57;;
25525;SDS011;13424;48.424;11.258;2023-12-04T08:41:54;45.03;;;22.87;;
25525;SDS011;13424;48.424;11.258;2023-12-04T08:44:20;50.93;;;24.27;;
25525;SDS011;13424;48.424;11.258;2023-12-04T08:46:46;45.43;;;22.33;;
25525;SDS011;13424;48.424;11.258;2023-12-04T08:49:12;44.33;;;20.87;;
25525;SDS011;13424;48.424;11.258;2023-12-04T08:51:38;44.93;;;21.63;;
25525;SDS011;13424;48.424;11.258;2023-12-04T08:58:07;45.47;;;21.40;;
25525;SDS011;13424;48.424;11.258;2023-12-04T09:00:33;41.73;;;20.37;;
25525;SDS011;13424;48.424;11.258;2023-12-04T09:03:04;39.80;;;21.90;;
25525;SDS011;13424;48.424;11.258;2023-12-04T09:05:30;34.83;;;19.43;;
25525;SDS011;13424;48.424;11.258;2023-12-04T09:07:56;39.17;;;20.63;;
25525;SDS011;13424;48.424;11.258;2023-12-04T09:10:22;36.00;;;20.13;;
25525;SDS011;13424;48.424;11.258;2023-12-04T09:12:48;42.63;;;21.60;;
25525;SDS011;13424;48.424;11.258;2023-12-04T09:15:14;44.47;;;21.50;;
25525;SDS011;13424;48.424;11.258;2023-12-04T09:17:40;43.10;;;20.27;;
25525;SDS011;13424;48.424;11.258;2023-12-04T09:23:56;38.50;;;19.27;;
25525;SDS011;13424;48.424;11.258;2023-12-04T09:26:22;45.23;;;20.87;;
25525;SDS011;13424;48.424;11.258;2023-12-04T09:28:48;39.50;;;20.83;;
25525;SDS011;13424;48.424;11.258;2023-12-04T09:31:14;37.47;;;19.33;;
25525;SDS011;13424;48.424;11.258;2023-12-04T09:33:40;44.43;;;20.27;;
25525;SDS011;13424;48.424;11.258;2023-12-04T09:36:07;42.13;;;21.93;;
25525;SDS011;13424;48.424;11.258;2023-12-04T09:38:34;42.50;;;20.30;;
25525;SDS011;13424;48.424;11.258;2023-12-04T09:41:01;40.07;;;20.17;;
25525;SDS011;13424;48.424;11.258;2023-12-04T09:43:30;40.17;;;20.97;;
25525;SDS011;13424;48.424;11.258;2023-12-04T09:45:58;40.27;;;21.17;;
25525;SDS011;13424;48.424;11.258;2023-12-04T09:48:26;38.67;;;20.70;;
25525;SDS011;13424;48.424;11.258;2023-12-04T09:54:50;37.27;;;20.30;;
25525;SDS011;13424;48.424;11.258;2023-12-04T09:57:16;39.17;;;20.20;;
25525;SDS011;13424;48.424;11.258;2023-12-04T09:59:43;45.17;;;22.30;;
25525;SDS011;13424;48.424;11.258;2023-12-04T10:02:11;97.70;;;40.47;;
25525;SDS011;13424;48.424;11.258;2023-12-04T10:04:37;52.83;;;26.77;;
25525;SDS011;13424;48.424;11.258;2023-12-04T10:07:03;152.23;;;49.10;;
25525;SDS011;13424;48.424;11.258;2023-12-04T10:09:29;136.67;;;50.73;;
25525;SDS011;13424;48.424;11.258;2023-12-04T10:11:56;89.77;;;37.10;;
25525;SDS011;13424;48.424;11.258;2023-12-04T10:14:23;48.13;;;25.83;;
25525;SDS011;13424;48.424;11.258;2023-12-04T10:16:51;50.97;;;25.63;;
25525;SDS011;13424;48.424;11.258;2023-12-04T10:19:28;48.77;;;27.33;;
25525;SDS011;13424;48.424;11.258;2023-12-04T10:21:56;46.37;;;24.37;;
25525;SDS011;13424;48.424;11.258;2023-12-04T10:24:39;56.93;;;27.30;;
25525;SDS011;13424;48.424;11.258;2023-12-04T10:27:06;52.53;;;25.53;;
25525;SDS011;13424;48.424;11.258;2023-12-04T10:29:55;46.33;;;22.87;;
25525;SDS011;13424;48.424;11.258;2023-12-04T10:32:21;42.77;;;22.97;;
25525;SDS011;13424;48.424;11.258;2023-12-04T10:34:48;42.27;;;22.03;;
25525;SDS011;13424;48.424;11.258;2023-12-04T10:40:49;43.13;;;23.23;;
25525;SDS011;13424;48.424;11.258;2023-12-04T10:43:16;41.20;;;20.83;;
25525;SDS011;13424;48.424;11.258;2023-12-04T10:45:44;46.50;;;22.23;;
25525;SDS011;13424;48.424;11.258;2023-12-04T10:48:12;44.73;;;22.53;;
25525;SDS011;13424;48.424;11.258;2023-12-04T10:50:46;48.00;;;23.33;;
25525;SDS011;13424;48.424;11.258;2023-12-04T10:53:15;48.73;;;23.67;;
25525;SDS011;13424;48.424;11.258;2023-12-04T10:55:43;48.67;;;23.43;;
25525;SDS011;13424;48.424;11.258;2023-12-04T10:58:11;53.57;;;23.83;;
25525;SDS011;13424;48.424;11.258;2023-12-04T11:00:46;47.07;;;22.43;;
25525;SDS011;13424;48.424;11.258;2023-12-04T11:03:19;49.93;;;24.03;;
25525;SDS011;13424;48.424;11.258;2023-12-04T11:06:00;52.57;;;26.37;;
25525;SDS011;13424;48.424;11.258;2023-12-04T11:08:32;46.00;;;24.50;;
25525;SDS011;13424;48.424;11.258;2023-12-04T11:11:05;50.03;;;23.17;;
25525;SDS011;13424;48.424;11.258;2023-12-04T11:13:41;51.77;;;26.10;;
25525;SDS011;13424;48.424;11.258;2023-12-04T11:22:03;50.77;;;25.93;;
25525;SDS011;13424;48.424;11.258;2023-12-04T11:24:32;49.70;;;26.00;;
25525;SDS011;13424;48.424;11.258;2023-12-04T11:27:00;42.37;;;23.43;;
25525;SDS011;13424;48.424;11.258;2023-12-04T11:29:28;52.20;;;24.93;;
25525;SDS011;13424;48.424;11.258;2023-12-04T11:31:55;45.17;;;23.00;;
25525;SDS011;13424;48.424;11.258;2023-12-04T11:34:21;50.63;;;23.87;;
25525;SDS011;13424;48.424;11.258;2023-12-04T11:36:47;43.53;;;23.07;;
25525;SDS011;13424;48.424;11.258;2023-12-04T11:39:13;44.00;;;23.10;;
25525;SDS011;13424;48.424;11.258;2023-12-04T11:41:42;46.33;;;24.67;;
25525;SDS011;13424;48.424;11.258;2023-12-04T11:46:58;53.58;;;22.90;;
25525;SDS011;13424;48.424;11.258;2023-12-04T11:49:31;47.13;;;24.30;;
25525;SDS011;13424;48.424;11.258;2023-12-04T11:51:58;48.50;;;24.27;;
25525;SDS011;13424;48.424;11.258;2023-12-04T11:54:27;38.57;;;22.80;;
25525;SDS011;13424;48.424;11.258;2023-12-04T11:57:03;50.33;;;24.33;;
25525;SDS011;13424;48.424;11.258;2023-12-04T11:59:47;50.70;;;26.00;;
25525;SDS011;13424;48.424;11.258;2023-12-04T12:02:15;49.03;;;23.00;;
25525;SDS011;13424;48.424;11.258;2023-12-04T12:04:42;41.87;;;22.73;;
25525;SDS011;13424;48.424;11.258;2023-12-04T12:07:10;55.33;;;26.67;;
25525;SDS011;13424;48.424;11.258;2023-12-04T12:09:37;47.40;;;24.13;;
25525;SDS011;13424;48.424;11.258;2023-12-04T12:12:04;41.70;;;21.93;;
25525;SDS011;13424;48.424;11.258;2023-12-04T12:14:31;38.90;;;22.77;;
25525;SDS011;13424;48.424;11.258;2023-12-04T12:17:22;45.67;;;23.73;;
25525;SDS011;13424;48.424;11.258;2023-12-04T12:22:14;40.37;;;22.53;;
25525;SDS011;13424;48.424;11.258;2023-12-04T12:24:40;40.53;;;22.20;;
25525;SDS011;13424;48.424;11.258;2023-12-04T12:27:06;38.27;;;22.00;;
25525;SDS011;13424;48.424;11.258;2023-12-04T12:29:32;42.63;;;22.73;;
25525;SDS011;13424;48.424;11.258;2023-12-04T12:31:58;46.53;;;24.73;;
25525;SDS011;13424;48.424;11.258;2023-12-04T12:34:24;46.97;;;22.77;;
25525;SDS011;13424;48.424;11.258;2023-12-04T12:36:50;44.50;;;24.53;;
25525;SDS011;13424;48.424;11.258;2023-12-04T12:39:16;44.33;;;23.40;;
25525;SDS011;13424;48.424;11.258;2023-12-04T12:41:48;45.50;;;22.50;;
25525;SDS011;13424;48.424;11.258;2023-12-04T12:44:15;40.83;;;23.27;;
25525;SDS011;13424;48.424;11.258;2023-12-04T12:46:42;46.50;;;22.23;;
25525;SDS011;13424;48.424;11.258;2023-12-04T12:49:19;45.43;;;25.60;;
25525;SDS011;13424;48.424;11.258;2023-12-04T12:51:46;47.83;;;22.77;;
25525;SDS011;13424;48.424;11.258;2023-12-04T12:54:12;39.70;;;22.57;;
25525;SDS011;13424;48.424;11.258;2023-12-04T12:56:39;45.13;;;23.80;;
25525;SDS011;13424;48.424;11.258;2023-12-04T12:59:05;45.03;;;24.13;;
25525;SDS011;13424;48.424;11.258;2023-12-04T13:01:32;40.10;;;23.27;;
25525;SDS011;13424;48.424;11.258;2023-12-04T13:04:00;43.30;;;25.65;;
25525;SDS011;13424;48.424;11.258;2023-12-04T13:06:26;41.97;;;25.03;;
25525;SDS011;13424;48.424;11.258;2023-12-04T13:08:52;49.00;;;28.03;;
25525;SDS011;13424;48.424;11.258;2023-12-04T13:11:18;50.43;;;25.57;;
25525;SDS011;13424;48.424;11.258;2023-12-04T13:13:44;48.40;;;24.65;;
25525;SDS011;13424;48.424;11.258;2023-12-04T13:16:10;49.03;;;24.45;;
25525;SDS011;13424;48.424;11.258;2023-12-04T13:18:36;47.50;;;24.83;;
25525;SDS011;13424;48.424;11.258;2023-12-04T13:21:03;57.28;;;29.45;;
25525;SDS011;13424;48.424;11.258;2023-12-04T13:23:30;59.00;;;30.40;;
25525;SDS011;13424;48.424;11.258;2023-12-04T13:25:56;42.90;;;25.77;;
25525;SDS011;13424;48.424;11.258;2023-12-04T13:28:23;79.47;;;37.00;;
25525;SDS011;13424;48.424;11.258;2023-12-04T13:30:49;52.83;;;26.70;;
25525;SDS011;13424;48.424;11.258;2023-12-04T13:33:16;64.43;;;30.97;;
25525;SDS011;13424;48.424;11.258;2023-12-04T13:35:42;52.97;;;28.57;;
25525;SDS011;13424;48.424;11.258;2023-12-04T13:38:11;49.83;;;25.70;;
25525;SDS011;13424;48.424;11.258;2023-12-04T13:40:39;52.05;;;28.35;;
25525;SDS011;13424;48.424;11.258;2023-12-04T13:43:05;76.43;;;35.83;;
25525;SDS011;13424;48.424;11.258;2023-12-04T13:45:50;50.97;;;27.00;;
25525;SDS011;13424;48.424;11.258;2023-12-04T13:48:17;55.80;;;26.33;;
25525;SDS011;13424;48.424;11.258;2023-12-04T13:50:46;55.73;;;27.93;;
25525;SDS011;13424;48.424;11.258;2023-12-04T13:53:15;42.83;;;24.17;;
25525;SDS011;13424;48.424;11.258;2023-12-04T13:58:54;44.47;;;23.80;;
25525;SDS011;13424;48.424;11.258;2023-12-04T14:01:23;42.45;;;22.48;;
25525;SDS011;13424;48.424;11.258;2023-12-04T14:03:57;47.23;;;25.63;;
25525;SDS011;13424;48.424;11.258;2023-12-04T14:06:29;47.03;;;23.23;;
25525;SDS011;13424;48.424;11.258;2023-12-04T14:08:56;45.23;;;23.93;;
25525;SDS011;13424;48.424;11.258;2023-12-04T14:11:24;40.20;;;20.83;;
25525;SDS011;13424;48.424;11.258;2023-12-04T14:13:50;45.60;;;23.33;;
25525;SDS011;13424;48.424;11.258;2023-12-04T14:16:16;42.63;;;22.80;;
25525;SDS011;13424;48.424;11.258;2023-12-04T14:18:43;45.30;;;23.87;;
25525;SDS011;13424;48.424;11.258;2023-12-04T14:21:09;46.90;;;23.57;;
25525;SDS011;13424;48.424;11.258;2023-12-04T14:23:35;43.37;;;23.53;;
25525;SDS011;13424;48.424;11.258;2023-12-04T14:26:01;48.43;;;25.07;;
25525;SDS011;13424;48.424;11.258;2023-12-04T14:28:28;53.50;;;31.77;;
25525;SDS011;13424;48.424;11.258;2023-12-04T14:30:54;62.57;;;38.43;;
25525;SDS011;13424;48.424;11.258;2023-12-04T14:33:21;63.20;;;40.10;;
25525;SDS011;13424;48.424;11.258;2023-12-04T14:35:48;45.10;;;26.50;;
25525;SDS011;13424;48.424;11.258;2023-12-04T14:38:14;45.70;;;24.30;;
25525;SDS011;13424;48.424;11.258;2023-12-04T14:40:40;51.03;;;25.43;;
25525;SDS011;13424;48.424;11.258;2023-12-04T14:43:06;46.17;;;24.77;;
25525;SDS011;13424;48.424;11.258;2023-12-04T14:45:37;44.30;;;24.03;;
25525;SDS011;13424;48.424;11.258;2023-12-04T14:48:03;48.37;;;26.27;;
25525;SDS011;13424;48.424;11.258;2023-12-04T14:50:35;49.87;;;26.33;;
25525;SDS011;13424;48.424;11.258;2023-12-04T14:53:03;50.13;;;25.70;;
25525;SDS011;13424;48.424;11.258;2023-12-04T14:55:42;49.80;;;26.53;;
25525;SDS011;13424;48.424;11.258;2023-12-04T14:58:28;60.57;;;28.87;;
25525;SDS011;13424;48.424;11.258;2023-12-04T15:01:12;58.30;;;29.70;;
25525;SDS011;13424;48.424;11.258;2023-12-04T15:03:38;76.00;;;36.13;;
25525;SDS011;13424;48.424;11.258;2023-12-04T15:06:24;72.23;;;36.00;;
25525;SDS011;13424;48.424;11.258;2023-12-04T15:09:12;64.77;;;33.10;;
25525;SDS011;13424;48.424;11.258;2023-12-04T15:11:57;66.73;;;31.20;;
25525;SDS011;13424;48.424;11.258;2023-12-04T15:14:48;60.80;;;27.63;;
25525;SDS011;13424;48.424;11.258;2023-12-04T15:17:37;64.33;;;32.60;;
25525;SDS011;13424;48.424;11.258;2023-12-04T15:20:21;70.87;;;35.43;;